Data for 03/15/2017

Time Sea-Level Adjusted Pressure Absolute Pressure Temperature Relative Humidity Dew Point   
(mb) (inHg) (mb) (inHg) (C) (F) (%) (C) (F)
00:05 1019 30.09 848 25.04 10.5 50.8 39 -3 26.7
00:10 1019 30.09 848 25.04 10.2 50.4 41 -2.4 27.7
00:15 1019 30.09 848 25.04 9.5 49.1 45 -1.9 28.6
00:20 1019 30.09 848 25.04 8.7 47.6 44 -2.7 27.1
00:25 1019 30.09 848 25.04 8.9 48 44 -2.6 27.2
00:30 1019 30.09 848 25.04 8.7 47.7 45 -2.5 27.5
00:35 1019 30.09 848 25.04 8.6 47.5 45 -2.6 27.3
00:40 1019 30.09 848 25.04 8.7 47.6 45 -2.5 27.6
00:45 1019 30.09 848 25.04 8.5 47.3 45 -2.7 27.1
00:50 1019 30.09 848 25.04 8.7 47.7 44 -2.8 27
00:55 1019 30.09 848 25.04 8.9 48.1 44 -2.7 27.1
01:00 1019 30.09 848 25.04 8.9 48.1 45 -2.4 27.6
01:05 1019 30.09 848 25.04 8.6 47.6 45 -2.7 27.1
01:10 1019 30.09 848 25.04 8.5 47.3 46 -2.5 27.5
01:15 1018 30.06 848 25.04 8.6 47.5 43 -3.1 26.4
01:20 1018 30.06 848 25.04 9 48.1 44 -2.5 27.6
01:25 1019 30.09 848 25.04 8.9 48 43 -2.9 26.8
01:30 1019 30.09 848 25.04 9.1 48.3 42 -3 26.6
01:35 1019 30.09 848 25.04 9.2 48.6 43 -2.5 27.4
01:40 1019 30.09 848 25.04 8.9 48 45 -2.5 27.5
01:45 1019 30.09 848 25.04 8.4 47.2 48 -2 28.4
01:50 1019 30.09 848 25.04 8 46.4 46 -2.9 26.7
01:55 1019 30.09 848 25.04 8.4 47 47 -2.2 28.1
02:00 1019 30.09 848 25.04 8.5 47.3 44 -3.1 26.3
02:05 1019 30.09 848 25.04 9.1 48.4 42 -3.2 26.2
02:10 1019 30.09 848 25.04 9.4 48.9 40 -3.4 25.9
02:15 1018 30.06 848 25.04 9.7 49.4 40 -3.4 25.8
02:20 1018 30.06 848 25.04 9.9 49.9 41 -2.7 27.1
02:25 1018 30.06 848 25.04 9.4 48.9 43 -2.5 27.4
02:30 1018 30.06 847 25.01 8.6 47.4 44 -3.1 26.4
02:35 1018 30.06 847 25.01 8.8 47.8 42 -3.4 26
02:40 1018 30.06 847 25.01 9 48.2 42 -3.3 26.1
02:45 1018 30.06 847 25.01 8.7 47.6 43 -3.1 26.4
02:50 1018 30.06 847 25.01 8.5 47.3 43 -3.3 26
02:55 1018 30.06 847 25.01 8.8 47.8 43 -3.2 26.3
03:00 1018 30.06 847 25.01 8.6 47.5 42 -3.5 25.7
03:05 1018 30.06 847 25.01 8.9 48.1 38 -4.6 23.7
03:10 1018 30.06 847 25.01 9.4 49 39 -3.7 25.3
03:15 1018 30.06 847 25.01 9.8 49.6 35 -4.8 23.4
03:20 1018 30.06 847 25.01 10.3 50.6 34 -4.7 23.6
03:25 1018 30.06 847 25.01 10.6 51.1 33 -4.8 23.4
03:30 1018 30.06 847 25.01 10.9 51.7 32 -4.9 23.2
03:35 1018 30.06 847 25.01 11.1 51.9 33 -4.7 23.6
03:40 1018 30.06 847 25.01 10.9 51.6 33 -4.7 23.6
03:45 1018 30.06 847 25.01 10.7 51.3 33 -4.7 23.5
03:50 1018 30.06 847 25.01 10.6 51.1 34 -4.7 23.6
03:55 1018 30.06 847 25.01 10.6 51.1 34 -4.8 23.4
04:00 1018 30.06 847 25.01 10.5 50.9 34 -4.6 23.7
04:05 1018 30.06 847 25.01 10.4 50.8 34 -4.6 23.8
04:10 1018 30.06 847 25.01 10.3 50.5 35 -4.4 24.1
04:15 1018 30.06 847 25.01 10.2 50.4 35 -4.4 24.1
04:20 1018 30.06 847 25.01 10.2 50.3 34 -5 22.9
04:25 1018 30.06 847 25.01 10.4 50.8 33 -5.2 22.7
04:30 1018 30.06 847 25.01 10.8 51.5 32 -5 23
04:35 1018 30.06 847 25.01 11 51.7 33 -4.7 23.5
04:40 1018 30.06 847 25.01 10.9 51.7 32 -5.3 22.5
04:45 1018 30.06 847 25.01 11.1 52 32 -4.9 23.1
04:50 1018 30.06 847 25.01 11.1 51.9 32 -5 22.9
04:55 1018 30.06 847 25.01 10.9 51.6 32 -4.9 23.2
05:00 1018 30.06 847 25.01 10.7 51.3 33 -5 23
05:05 1018 30.06 847 25.01 10.6 51.1 32 -5.3 22.4
05:10 1018 30.06 847 25.01 10.6 51 33 -4.9 23.3
05:15 1018 30.06 847 25.01 10.3 50.5 34 -4.7 23.5
05:20 1018 30.06 847 25.01 10.1 50.1 34 -5.1 22.9
05:25 1018 30.06 847 25.01 10.2 50.4 36 -4.3 24.2
05:30 1018 30.06 847 25.01 10 49.9 35 -4.7 23.6
05:35 1018 30.06 847 25.01 9.9 49.7 36 -4.6 23.7
05:40 1018 30.06 847 25.01 9.9 49.7 36 -4.6 23.8
05:45 1018 30.06 847 25.01 10.3 50.5 34 -4.8 23.4
05:50 1018 30.06 847 25.01 10.5 50.8 36 -4 24.8
05:55 1018 30.06 847 25.01 10 49.9 37 -4 24.8
06:00 1018 30.06 847 25.01 9.5 49 38 -4.1 24.6
06:05 1018 30.06 847 25.01 9.5 49 39 -3.7 25.4
06:10 1018 30.06 847 25.01 8.9 48.1 42 -3.3 26.1
06:15 1018 30.06 847 25.01 8.1 46.5 43 -3.9 25
06:20 1018 30.06 847 25.01 8.1 46.7 42 -3.9 24.9
06:25 1018 30.06 847 25.01 8.2 46.7 43 -3.7 25.3
06:30 1017 30.03 847 25.01 8.2 46.8 42 -3.8 25.1
06:35 1017 30.03 847 25.01 8.7 47.6 40 -4.1 24.7
06:40 1017 30.03 847 25.01 9 48.2 40 -3.8 25.2
06:45 1017 30.03 847 25.01 9 48.1 41 -3.7 25.4
06:50 1017 30.03 847 25.01 8.7 47.6 43 -3.1 26.4
06:55 1017 30.03 847 25.01 8 46.5 45 -3.2 26.3
07:00 1017 30.03 847 25.01 7.9 46.2 44 -3.5 25.6
07:05 1017 30.03 847 25.01 8.4 47.2 42 -3.7 25.4
07:10 1017 30.03 847 25.01 8.7 47.7 42 -3.3 26.1
07:15 1017 30.03 847 25.01 8.9 48 41 -3.7 25.3
07:20 1017 30.03 847 25.01 9.2 48.5 40 -3.6 25.5
07:25 1017 30.03 847 25.01 9.2 48.5 41 -3.4 25.9
07:30 1017 30.03 847 25.01 9.1 48.3 42 -3.3 26.1
07:35 1017 30.03 847 25.01 9.2 48.6 39 -3.8 25.1
07:40 1017 30.03 847 25.01 9.8 49.7 38 -3.8 25.1
07:45 1017 30.03 847 25.01 10.2 50.4 37 -3.9 25
07:50 1018 30.06 847 25.01 10.5 51 36 -3.8 25.2
07:55 1018 30.06 847 25.01 11.1 51.9 35 -3.9 25
08:00 1018 30.06 847 25.01 11.4 52.6 34 -3.9 24.9
08:05 1018 30.06 847 25.01 11.4 52.6 35 -3.4 25.9
08:10 1018 30.06 847 25.01 11.4 52.4 35 -3.5 25.6
08:15 1018 30.06 847 25.01 11.4 52.5 34 -4 24.9
08:20 1018 30.06 847 25.01 12 53.6 33 -3.8 25.1
08:25 1018 30.06 847 25.01 12.5 54.4 32 -3.8 25.2
08:30 1018 30.06 847 25.01 12.9 55.3 31 -3.6 25.4
08:35 1018 30.06 847 25.01 13.1 55.7 31 -3.7 25.3
08:40 1018 30.06 847 25.01 13 55.5 31 -3.8 25.2
08:45 1018 30.06 847 25.01 13.1 55.5 31 -3.7 25.4
08:50 1018 30.06 847 25.01 12.8 55 31 -3.9 24.9
08:55 1018 30.06 847 25.01 13 55.5 30 -4.3 24.3
09:00 1018 30.06 847 25.01 13.7 56.6 30 -3.7 25.3
09:05 1018 30.06 847 25.01 13.5 56.3 29 -3.9 24.9
09:10 1018 30.06 847 25.01 13.2 55.8 30 -3.9 25
09:15 1017 30.03 847 25.01 13.3 55.9 30 -3.8 25.2
09:20 1017 30.03 847 25.01 13.6 56.4 30 -3.7 25.4
09:25 1017 30.03 847 25.01 13.7 56.6 29 -3.9 24.9
09:30 1017 30.03 847 25.01 13.9 57 29 -3.7 25.4
09:35 1017 30.03 847 25.01 13.8 56.9 28 -4.1 24.6
09:40 1017 30.03 847 25.01 14.1 57.3 29 -3.8 25.2
09:45 1017 30.03 847 25.01 14.4 57.8 28 -4.1 24.7
09:50 1017 30.03 847 25.01 14.7 58.4 27 -4.1 24.7
09:55 1017 30.03 847 25.01 14.8 58.7 27 -4.1 24.7
10:00 1017 30.03 846 24.98 15.1 59.2 26 -3.9 24.9
10:05 1017 30.03 846 24.98 15.3 59.5 27 -3.6 25.5
10:10 1017 30.03 846 24.98 15.4 59.8 25 -4.3 24.2
10:15 1017 30.03 846 24.98 15.8 60.5 25 -4.1 24.6
10:20 1017 30.03 846 24.98 16.1 60.9 25 -3.7 25.3
10:25 1017 30.03 846 24.98 15.7 60.2 24 -4.6 23.7
10:30 1017 30.03 846 24.98 16.4 61.6 23 -4.7 23.6
10:35 1017 30.03 846 24.98 16 60.9 23 -4.9 23.2
10:40 1017 30.03 846 24.98 16.3 61.4 22 -5.3 22.4
10:45 1017 30.03 846 24.98 16.9 62.3 22 -5.1 22.8
10:50 1017 30.03 846 24.98 17.5 63.5 20 -5.3 22.4
10:55 1017 30.03 846 24.98 17.3 63.1 20 -5.7 21.7
11:00 1017 30.03 846 24.98 17.3 63.2 19 -6.2 20.9
11:05 1017 30.03 846 24.98 17.4 63.4 20 -6 21.3
11:10 1017 30.03 846 24.98 18.3 64.9 19 -5.4 22.3
11:15 1017 30.03 846 24.98 17.7 63.8 19 -6 21.3
11:20 1017 30.03 846 24.98 17.6 63.7 20 -5.3 22.4
11:25 1017 30.03 846 24.98 17.4 63.4 20 -5.6 21.9
11:30 1016 30 846 24.98 17.4 63.4 21 -5.3 22.4
11:35 1016 30 846 24.98 17.5 63.5 21 -5.3 22.5
11:40 1016 30 846 24.98 18.3 64.9 14 -10 14
11:45 1016 30 846 24.98 18.9 66 13 -9.7 14.6
11:50 1016 30 845 24.95 19.4 67 13 -9.5 14.9
11:55 1016 30 845 24.95 19.4 67 13 -9.6 14.8
12:00 1016 30 845 24.95 19.2 66.6 14 -9.1 15.5
12:05 1016 30 845 24.95 19 66.1 14 -9.5 14.9
12:10 1016 30 845 24.95 19.2 66.5 14 -9.1 15.6
12:15 1016 30 845 24.95 19.5 67 13 -9.2 15.4
12:20 1016 30 845 24.95 19.5 67.1 13 -9.2 15.4
12:25 1016 30 845 24.95 19.6 67.3 14 -8.9 16
12:30 1016 30 845 24.95 19.3 66.8 14 -8.9 16
12:35 1016 30 845 24.95 19.3 66.7 13 -9.3 15.3
12:40 1016 30 845 24.95 19.6 67.2 13 -9.2 15.4
12:45 1016 30 845 24.95 19 66.2 15 -8.4 16.9
12:50 1016 30 845 24.95 19 66.2 14 -8.6 16.4
12:55 1016 30 845 24.95 18.7 65.6 15 -8.6 16.6
13:00 1016 30 845 24.95 18.7 65.6 14 -8.9 16
13:05 1015 29.97 845 24.95 18.9 66.1 15 -8.1 17.3
13:10 1015 29.97 845 24.95 18.9 66.1 14 -8.8 16.2
13:15 1015 29.97 845 24.95 18.8 65.8 15 -8.5 16.7
13:20 1015 29.97 845 24.95 19.2 66.5 14 -8.6 16.5
13:25 1015 29.97 844 24.92 19.2 66.5 14 -8.9 16
13:30 1015 29.97 844 24.92 19.4 66.9 15 -8.3 17.1
13:35 1015 29.97 844 24.92 19.1 66.4 14 -8.7 16.3
13:40 1015 29.97 844 24.92 18.8 65.8 14 -9.3 15.3
13:45 1015 29.97 844 24.92 18.7 65.7 14 -9.4 15.1
13:50 1015 29.97 844 24.92 18.6 65.5 13 -10.1 13.9
13:55 1015 29.97 844 24.92 18.4 65.1 13 -10 14
14:00 1015 29.97 844 24.92 18.3 65 14 -9.8 14.3
14:05 1015 29.97 844 24.92 18.6 65.5 14 -9 15.8
14:10 1015 29.97 844 24.92 18.9 65.9 13 -9.7 14.5
14:15 1015 29.97 844 24.92 18.8 65.9 13 -10.2 13.7
14:20 1015 29.97 844 24.92 18.5 65.3 13 -10.2 13.7
14:25 1015 29.97 844 24.92 18.4 65.1 14 -9.7 14.5
14:30 1015 29.97 844 24.92 18.2 64.8 14 -9.5 14.8
14:35 1015 29.97 844 24.92 18.2 64.7 13 -10.5 13.2
14:40 1015 29.97 844 24.92 18 64.4 13 -10.7 12.7
14:45 1015 29.97 844 24.92 17.7 63.9 13 -11.1 12.1
14:50 1015 29.97 844 24.92 17.7 63.9 14 -10.4 13.2
14:55 1015 29.97 844 24.92 17.7 63.9 14 -10 13.9
15:00 1015 29.97 844 24.92 17.6 63.6 14 -10.4 13.3
15:05 1015 29.97 844 24.92 17.4 63.3 14 -10.1 13.9
15:10 1015 29.97 844 24.92 17.3 63.1 15 -9.8 14.4
15:15 1015 29.97 844 24.92 17.3 63.1 15 -9.9 14.2
15:20 1015 29.97 844 24.92 17.2 62.9 14 -10.2 13.7
15:25 1015 29.97 844 24.92 17 62.6 15 -10.1 13.7
15:30 1015 29.97 844 24.92 16.9 62.5 15 -9.8 14.3
15:35 1015 29.97 844 24.92 16.8 62.2 15 -10.3 13.4
15:40 1015 29.97 844 24.92 16.7 62.1 15 -10.1 13.8
15:45 1015 29.97 844 24.92 16.7 62 15 -10.2 13.6
15:50 1015 29.97 844 24.92 16.7 62 14 -10.5 13
15:55 1015 29.97 844 24.92 16.7 62.1 15 -10.2 13.6
16:00 1015 29.97 844 24.92 16.7 62 15 -9.8 14.3
16:05 1015 29.97 844 24.92 16.5 61.7 16 -9.1 15.7
16:10 1015 29.97 844 24.92 16.3 61.4 16 -9.7 14.5
16:15 1015 29.97 844 24.92 16.2 61.2 16 -9.8 14.4
16:20 1015 29.97 844 24.92 16.2 61.1 16 -9.4 15.1
16:25 1015 29.97 844 24.92 16.1 61 15 -10.4 13.3
16:30 1014 29.94 844 24.92 16.2 61.1 15 -10.6 12.9
16:35 1014 29.94 844 24.92 16.3 61.3 15 -10.6 12.9
16:40 1014 29.94 844 24.92 16.2 61.1 15 -10.5 13.1
16:45 1014 29.94 844 24.92 16 60.9 15 -10.4 13.4
16:50 1014 29.94 844 24.92 15.9 60.6 15 -10.5 13.1
16:55 1014 29.94 844 24.92 15.8 60.5 17 -9.3 15.3
17:00 1014 29.94 844 24.92 15.6 60 18 -9 15.8
17:05 1014 29.94 843 24.89 15.6 60 16 -9.8 14.4
17:10 1014 29.94 843 24.89 15.6 60.1 16 -10.3 13.4
17:15 1014 29.94 843 24.89 15.7 60.2 15 -10.6 12.9
17:20 1014 29.94 843 24.89 15.8 60.4 15 -10.4 13.3
17:25 1014 29.94 843 24.89 15.8 60.4 15 -10.7 12.8
17:30 1014 29.94 843 24.89 15.8 60.4 16 -10.1 13.9
17:35 1014 29.94 843 24.89 15.7 60.2 16 -10 14
17:40 1014 29.94 843 24.89 15.7 60.2 16 -9.7 14.6
17:45 1014 29.94 843 24.89 15.5 59.8 18 -8.8 16.1
17:50 1014 29.94 843 24.89 15.3 59.6 17 -9.3 15.3
17:55 1014 29.94 843 24.89 15.3 59.5 16 -10.2 13.7
18:00 1014 29.94 843 24.89 15.4 59.8 16 -10.4 13.3
18:05 1014 29.94 843 24.89 15.5 59.8 15 -11.2 11.9
18:10 1014 29.94 843 24.89 15.6 60.1 15 -10.8 12.5
18:15 1014 29.94 843 24.89 15.6 60.1 15 -10.9 12.4
18:20 1014 29.94 843 24.89 15.6 60 15 -10.6 12.9
18:25 1014 29.94 843 24.89 15.5 60 15 -11.2 11.9
18:30 1014 29.94 843 24.89 15.5 60 16 -10.5 13.1
18:35 1014 29.94 843 24.89 15.3 59.5 17 -9.9 14.2
18:40 1014 29.94 843 24.89 15 59.1 16 -10.5 13.1
18:45 1014 29.94 843 24.89 15.1 59.2 15 -11.4 11.5
18:50 1014 29.94 843 24.89 15.2 59.4 16 -10 13.9
18:55 1014 29.94 843 24.89 14.9 58.8 16 -11.1 12.1
19:00 1014 29.94 843 24.89 14.8 58.6 18 -9.6 14.7
19:05 1014 29.94 843 24.89 14.6 58.4 17 -9.9 14.2
19:10 1014 29.94 843 24.89 14.7 58.5 17 -10 14.1
19:15 1014 29.94 843 24.89 14.6 58.3 18 -9.6 14.8
19:20 1014 29.94 843 24.89 14.5 58.2 18 -9.6 14.7
19:25 1014 29.94 843 24.89 14.5 58.1 18 -9.8 14.3
19:30 1014 29.94 843 24.89 14.6 58.3 16 -11.1 12
19:35 1014 29.94 843 24.89 15 58.9 16 -11 12.2
19:40 1014 29.94 843 24.89 15.1 59.2 15 -11.1 12
19:45 1014 29.94 843 24.89 15.1 59.1 15 -11.3 11.6
19:50 1014 29.94 843 24.89 15.1 59.1 15 -11.3 11.7
19:55 1014 29.94 843 24.89 15 59.1 15 -11.3 11.7
20:00 1014 29.94 843 24.89 15.1 59.1 15 -11.4 11.4
20:05 1014 29.94 843 24.89 15 59 15 -11.8 10.7
20:10 1014 29.94 843 24.89 15 59.1 15 -11.8 10.8
20:15 1014 29.94 843 24.89 15 59 15 -11.7 10.9
20:20 1014 29.94 843 24.89 14.9 58.8 16 -11 12.2
20:25 1014 29.94 843 24.89 14.8 58.6 15 -11.2 11.8
20:30 1014 29.94 843 24.89 14.6 58.3 15 -11.8 10.8
20:35 1014 29.94 843 24.89 15.1 59.1 15 -11.7 11
20:40 1014 29.94 843 24.89 15.1 59.2 14 -11.9 10.6
20:45 1014 29.94 843 24.89 15 59 15 -11.7 10.9
20:50 1014 29.94 843 24.89 14.9 58.8 14 -12.1 10.3
20:55 1014 29.94 843 24.89 14.8 58.6 15 -12 10.5
21:00 1014 29.94 843 24.89 14.5 58.1 15 -11.7 11
21:05 1014 29.94 843 24.89 14.1 57.4 17 -10.8 12.5
21:10 1014 29.94 843 24.89 13.7 56.7 17 -10.6 12.9
21:15 1013 29.91 843 24.89 13.6 56.5 16 -11.6 11
21:20 1013 29.91 843 24.89 13.8 56.9 15 -12 10.3
21:25 1013 29.91 843 24.89 14.1 57.4 15 -12.1 10.2
21:30 1013 29.91 843 24.89 14.1 57.3 15 -12 10.4
21:35 1013 29.91 843 24.89 13.8 56.8 15 -12.1 10.2
21:40 1013 29.91 843 24.89 13.8 56.8 15 -12.6 9.4
21:45 1013 29.91 842 24.86 13.7 56.7 17 -11.1 12
21:50 1013 29.91 842 24.86 13.7 56.6 14 -13 8.6
21:55 1013 29.91 842 24.86 14 57.3 15 -12.4 9.7
22:00 1013 29.91 842 24.86 14.1 57.3 15 -12.5 9.5
22:05 1013 29.91 842 24.86 14 57.1 16 -11.8 10.8
22:10 1013 29.91 842 24.86 13.7 56.6 16 -12 10.4
22:15 1013 29.91 842 24.86 13.6 56.4 14 -13.2 8.3
22:20 1013 29.91 843 24.89 13.7 56.6 15 -12.2 10.1
22:25 1013 29.91 842 24.86 13.7 56.6 15 -12.8 8.9
22:30 1013 29.91 842 24.86 14.3 57.7 15 -11.8 10.7
22:35 1013 29.91 842 24.86 13.9 57.1 16 -11.6 11.1
22:40 1013 29.91 842 24.86 14.1 57.3 15 -12.3 9.8
22:45 1013 29.91 842 24.86 14.1 57.3 18 -9.9 14.2
22:50 1013 29.91 842 24.86 13.1 55.5 21 -9 15.8
22:55 1013 29.91 842 24.86 12.5 54.5 19 -10.4 13.3
23:00 1013 29.91 842 24.86 12.6 54.6 19 -10.3 13.4
23:05 1013 29.91 842 24.86 12.7 54.8 19 -10.5 13.1
23:10 1013 29.91 842 24.86 12.7 54.8 19 -10.2 13.6
23:15 1013 29.91 842 24.86 12.8 55 19 -10.5 13.1
23:20 1013 29.91 842 24.86 12.8 55.1 19 -10 13.9
23:25 1013 29.91 842 24.86 12.7 54.9 20 -9.9 14.1
23:30 1013 29.91 842 24.86 12.6 54.7 20 -9.9 14.2
23:35 1013 29.91 842 24.86 12.4 54.4 20 -10.2 13.7
23:40 1013 29.91 842 24.86 12.3 54.2 20 -9.9 14.2
23:45 1013 29.91 842 24.86 12.2 53.9 21 -9.8 14.3
23:50 1013 29.91 842 24.86 12 53.7 21 -9.9 14.3
23:55 1013 29.91 842 24.86 11.9 53.5 21 -9.9 14.2
24:00 1013 29.91 842 24.86 12 53.7 21 -9.5 14.9